Plattsmouth, NE

7:25 PM CDT on October 21, 2017 (GMT -0500)
Plattsmouth Municipal

Weather History for KPMV - March, 2013

Change the Weather History Date:

Monday, March 18, 2013

  Actual Average (KOFF) Record (KOFF)
Temperature  
Mean Temperature 32 °F -  
Max Temperature 38 °F 48 °F 82 °F (2012)
Min Temperature 27 °F 28 °F 24 °F (2001)
Degree Days  
Heating Degree Days 32    
Moisture  
Dew Point 24 °F    
Average Humidity 69    
Maximum Humidity 99    
Minimum Humidity 39    
Precipitation  
Precipitation 0.06 in - - ()
Sea Level Pressure  
Sea Level Pressure 29.87 in    
Wind  
Wind Speed 11 mph (WNW)    
Max Wind Speed 28 mph    
Max Gust Speed 38 mph    
Visibility 8 miles    
Events Snow    
Averages and records for this station are not official NWS values.
T = Trace of Precipitation, MM = Missing Value Source: NWS Daily Summary

Daily Weather History Graph

Daily Weather History Graph

Search for Another Location

Airport or City:

Trip Planner

Search our weather history database for the weather conditions in past years. The results will help you decide how hot, cold, wet, or windy it might be!

Date:

Astronomy

Mar. 18, 2013 Rise Set
Actual Time 7:29 AM CDT 7:33 PM CDT
Civil Twilight 7:02 AM CDT 8:01 PM CDT
Nautical Twilight 6:30 AM CDT 8:33 PM CDT
Astronomical Twilight 5:58 AM CDT 9:06 PM CDT
Moon 11:27 AM CDT (3/18) 1:36 AM CDT (3/18)
Length of Visible Light 12h 58m
Length of Day
12h 04m
Waxing Crescent, 41% of the Moon is Illuminated
Mar 18
Waxing Crescent
Mar 19
First Quarter
Mar 27
Full
Apr 2
Last Quarter
Apr 10
New

Hourly Weather History & Observations

Time (CDT) Temp. Windchill Dew Point Humidity Pressure Visibility Wind Dir Wind Speed Gust Speed Precip Events Conditions
12:15 AM 34.7 °F 27.5 °F 32.2 °F 91% 29.77 in 7.0 mi ESE 9.2 mph - N/A   Overcast
12:35 AM 34.9 °F - 32.0 °F 89% 29.80 in 5.0 mi Calm Calm - N/A Snow Light Snow
12:55 AM 33.8 °F 29.6 °F 32.0 °F 93% 29.79 in 1.0 mi SE 4.6 mph - 0.02 in Snow Snow
1:15 AM 33.1 °F - 32.0 °F 96% 29.78 in 1.0 mi Calm Calm - 0.02 in Snow Light Snow
1:35 AM 32.9 °F - 32.0 °F 96% 29.77 in 1.0 mi Calm Calm - 0.03 in Snow Light Snow
1:55 AM 32.9 °F 28.5 °F 32.0 °F 96% 29.77 in 1.5 mi SSE 4.6 mph - 0.03 in Snow Light Snow
2:15 AM 32.9 °F 24.1 °F 32.2 °F 97% 29.74 in 1.8 mi SE 11.5 mph - 0.01 in   Overcast
2:35 AM 32.9 °F 24.7 °F 32.2 °F 97% 29.74 in 2.5 mi SSE 10.4 mph - 0.01 in   Overcast
2:55 AM 33.1 °F 26.1 °F 32.4 °F 97% 29.76 in 3.0 mi South 8.1 mph - 0.01 in   Overcast
3:15 AM 33.1 °F 27.7 °F 32.5 °F 98% 29.75 in 3.0 mi SSE 5.8 mph - N/A   Overcast
3:35 AM 33.1 °F 27.7 °F 32.5 °F 98% 29.77 in 3.0 mi SW 5.8 mph - N/A Snow Light Snow
3:55 AM 33.1 °F 27.7 °F 32.5 °F 98% 29.78 in 2.5 mi WSW 5.8 mph - N/A Snow Light Snow
4:15 AM 33.3 °F 28.9 °F 32.9 °F 99% 29.77 in 4.0 mi WSW 4.6 mph - N/A   Overcast
4:35 AM 33.4 °F 28.1 °F 32.9 °F 98% 29.76 in 3.0 mi WSW 5.8 mph - N/A   Overcast
4:55 AM 33.4 °F 29.1 °F 32.9 °F 98% 29.76 in 2.5 mi SW 4.6 mph - N/A   Overcast
5:15 AM 33.6 °F 28.4 °F 32.9 °F 97% 29.75 in 3.0 mi SW 5.8 mph - N/A   Overcast
5:35 AM 33.8 °F 27.7 °F 32.9 °F 96% 29.75 in 2.5 mi SW 6.9 mph - N/A   Overcast
5:55 AM 33.8 °F 27.0 °F 33.1 °F 97% 29.75 in 3.0 mi SW 8.1 mph - N/A   Overcast
6:15 AM 34.0 °F 26.6 °F 33.3 °F 97% 29.75 in 3.0 mi WSW 9.2 mph - N/A   Overcast
6:35 AM 34.3 °F 27.0 °F 33.8 °F 98% 29.76 in 4.0 mi West 9.2 mph - N/A   Overcast
6:55 AM 35.1 °F 24.1 °F 34.2 °F 97% 29.77 in 5.0 mi WNW 19.6 mph 26.5 mph N/A   Overcast
7:15 AM 34.9 °F 26.6 °F 33.1 °F 93% 29.77 in 7.0 mi NW 11.5 mph - N/A   Scattered Clouds
7:35 AM 34.9 °F 25.7 °F 30.6 °F 84% 29.78 in 10.0 mi NW 13.8 mph 18.4 mph N/A   Clear
7:55 AM 33.8 °F 23.2 °F 28.2 °F 80% 29.79 in 10.0 mi NW 17.3 mph 23.0 mph N/A   Clear
8:15 AM 33.4 °F 23.9 °F 28.0 °F 81% 29.80 in 10.0 mi NW 13.8 mph 19.6 mph N/A   Clear
8:35 AM 33.6 °F 24.6 °F 28.0 °F 80% 29.81 in 10.0 mi NW 12.7 mph 18.4 mph N/A   Clear
8:55 AM 33.8 °F 24.8 °F 28.4 °F 81% 29.82 in 10.0 mi NW 12.7 mph - N/A   Clear
9:15 AM 33.8 °F 24.3 °F 28.4 °F 81% 29.82 in 10.0 mi WNW 13.8 mph 24.2 mph N/A   Clear
9:35 AM 33.8 °F 22.2 °F 23.5 °F 66% 29.82 in 10.0 mi NW 20.7 mph 26.5 mph N/A   Clear
9:55 AM 33.1 °F 21.5 °F 21.9 °F 64% 29.84 in 10.0 mi NW 19.6 mph 33.4 mph N/A   Clear
10:15 AM 33.8 °F 22.5 °F 22.1 °F 62% 29.85 in 10.0 mi NW 19.6 mph 26.5 mph N/A   Clear
10:35 AM 34.3 °F 22.6 °F 23.9 °F 66% 29.85 in 10.0 mi WNW 21.9 mph 26.5 mph N/A   Clear
10:55 AM 34.9 °F 23.3 °F 23.9 °F 64% 29.86 in 10.0 mi WNW 21.9 mph 33.4 mph N/A   Clear
11:15 AM 34.9 °F 23.6 °F 24.3 °F 65% 29.86 in 10.0 mi NW 20.7 mph 32.2 mph N/A   Clear
11:35 AM 35.2 °F 23.2 °F 24.3 °F 64% 29.87 in 10.0 mi WNW 24.2 mph 35.7 mph N/A   Clear
11:55 AM 36.0 °F 23.9 °F 24.8 °F 64% 29.88 in 10.0 mi WNW 25.3 mph 34.5 mph N/A   Clear
12:15 PM 36.3 °F 24.2 °F 24.8 °F 63% 29.88 in 10.0 mi WNW 26.5 mph 34.5 mph N/A   Clear
12:35 PM 36.3 °F 24.4 °F 24.4 °F 62% 29.88 in 10.0 mi WNW 25.3 mph 35.7 mph N/A   Mostly Cloudy
12:55 PM 37.6 °F 26.9 °F 24.3 °F 59% 29.89 in 10.0 mi NW 21.9 mph 34.5 mph N/A   Scattered Clouds
1:15 PM 37.0 °F 25.6 °F 21.2 °F 53% 29.90 in 10.0 mi WNW 24.2 mph 38.0 mph N/A   Scattered Clouds
1:35 PM 36.9 °F 24.9 °F 20.1 °F 51% 29.90 in 10.0 mi WNW 26.5 mph 36.8 mph N/A   Clear
1:55 PM 37.6 °F 25.6 °F 19.9 °F 49% 29.91 in 10.0 mi NW 27.6 mph 36.8 mph N/A   Scattered Clouds
2:15 PM 37.6 °F 25.6 °F 18.7 °F 47% 29.91 in 10.0 mi WNW 27.6 mph 38.0 mph N/A   Scattered Clouds
2:35 PM 38.1 °F 26.4 °F 19.0 °F 46% 29.90 in 10.0 mi WNW 27.6 mph 34.5 mph N/A   Clear
2:55 PM 38.7 °F 27.1 °F 18.5 °F 44% 29.91 in 10.0 mi WNW 27.6 mph 35.7 mph N/A   Clear
3:15 PM 38.3 °F 27.6 °F 18.1 °F 44% 29.91 in 10.0 mi WNW 23.0 mph 36.8 mph N/A   Clear
3:35 PM 38.5 °F 26.9 °F 17.6 °F 43% 29.91 in 10.0 mi WNW 27.6 mph 35.7 mph N/A   Clear
3:55 PM 38.5 °F 27.1 °F 17.2 °F 42% 29.91 in 10.0 mi WNW 26.5 mph 36.8 mph N/A   Clear
4:15 PM 38.5 °F 27.8 °F 16.5 °F 41% 29.92 in 10.0 mi WNW 23.0 mph 35.7 mph N/A   Clear
4:35 PM 38.5 °F 27.8 °F 16.2 °F 40% 29.93 in 10.0 mi WNW 23.0 mph 33.4 mph N/A   Clear
4:55 PM 38.5 °F 28.1 °F 16.2 °F 40% 29.94 in 10.0 mi NW 21.9 mph 32.2 mph N/A   Clear
5:15 PM 38.3 °F 27.8 °F 15.4 °F 39% 29.94 in 10.0 mi NW 21.9 mph 29.9 mph N/A   Clear
5:35 PM 37.8 °F 28.0 °F 15.6 °F 41% 29.95 in 10.0 mi WNW 18.4 mph 26.5 mph N/A   Clear
5:55 PM 38.1 °F 28.4 °F 15.6 °F 40% 29.95 in 10.0 mi NW 18.4 mph 28.8 mph N/A   Clear
6:15 PM 37.0 °F 27.0 °F 14.5 °F 40% 29.95 in 10.0 mi WNW 18.4 mph 28.8 mph N/A   Clear
6:35 PM 36.5 °F 26.0 °F 14.2 °F 40% 29.96 in 10.0 mi WNW 19.6 mph 25.3 mph N/A   Clear
6:55 PM 35.8 °F 25.7 °F 14.2 °F 41% 29.97 in 10.0 mi WNW 17.3 mph 23.0 mph N/A   Clear
7:15 PM 34.9 °F 24.9 °F 14.0 °F 42% 29.98 in 10.0 mi WNW 16.1 mph 21.9 mph N/A   Clear
7:35 PM 33.8 °F 25.3 °F 14.4 °F 45% 29.99 in 10.0 mi WNW 11.5 mph 21.9 mph N/A   Clear
7:55 PM 32.4 °F 24.6 °F 15.4 °F 50% 29.99 in 10.0 mi WNW 9.2 mph - N/A   Clear
8:15 PM 32.0 °F 24.8 °F 15.6 °F 51% 30.00 in 10.0 mi WNW 8.1 mph - N/A   Clear
8:35 PM 31.1 °F 24.5 °F 15.8 °F 53% 30.01 in 10.0 mi WNW 6.9 mph - N/A   Clear
8:55 PM 29.8 °F 24.9 °F 16.0 °F 56% 30.01 in 10.0 mi WNW 4.6 mph - N/A   Clear
9:15 PM 28.9 °F 22.8 °F 15.8 °F 58% 30.01 in 10.0 mi NW 5.8 mph - N/A   Clear
9:35 PM 28.8 °F 23.7 °F 15.8 °F 58% 30.01 in 10.0 mi NW 4.6 mph - N/A   Clear
9:55 PM 28.6 °F 24.8 °F 15.8 °F 59% 30.01 in 10.0 mi WNW 3.5 mph - N/A   Clear
10:15 PM 28.8 °F 23.7 °F 15.6 °F 58% 30.02 in 10.0 mi West 4.6 mph - N/A   Clear
10:55 PM 27.5 °F 23.6 °F 16.2 °F 62% 30.04 in 10.0 mi West 3.5 mph - N/A   Clear
11:15 PM 27.1 °F 23.2 °F 16.3 °F 64% 30.04 in 10.0 mi West 3.5 mph - N/A   Clear
11:35 PM 27.3 °F 23.4 °F 16.3 °F 63% 30.04 in 10.0 mi West 3.5 mph - N/A   Clear
11:55 PM 27.3 °F 22.0 °F 16.2 °F 63% 30.04 in 10.0 mi WNW 4.6 mph - N/A   Clear